createdAt,value
2019-01-13T00:00:43.000Z,99865
2019-01-13T00:01:43.000Z,99867
2019-01-13T00:03:43.000Z,99865
2019-01-13T00:04:43.000Z,99865
2019-01-13T00:06:43.000Z,99860
2019-01-13T00:08:43.000Z,99857
2019-01-13T00:10:43.000Z,99857
2019-01-13T00:12:28.000Z,99859
2019-01-13T00:14:43.000Z,99865
2019-01-13T00:16:43.000Z,99865
2019-01-13T00:18:43.000Z,99865
2019-01-13T00:20:43.000Z,99870
2019-01-13T00:21:43.000Z,99868
2019-01-13T00:23:43.000Z,99863
2019-01-13T00:25:43.000Z,99862
2019-01-13T00:27:43.000Z,99863
2019-01-13T00:28:43.000Z,99858
2019-01-13T00:30:13.000Z,99862
2019-01-13T00:31:43.000Z,99860
2019-01-13T00:32:43.000Z,99861
2019-01-13T00:34:43.000Z,99871
2019-01-13T00:36:13.000Z,99867
2019-01-13T00:37:43.000Z,99863
2019-01-13T00:39:43.000Z,99863
2019-01-13T00:41:43.000Z,99868
2019-01-13T00:42:43.000Z,99868
2019-01-13T00:43:43.000Z,99865
2019-01-13T00:44:43.000Z,99864
2019-01-13T00:45:43.000Z,99863
2019-01-13T00:47:43.000Z,99865
2019-01-13T00:48:43.000Z,99864
2019-01-13T00:50:28.000Z,99867
2019-01-13T00:51:43.000Z,99861
2019-01-13T00:53:43.000Z,99866
2019-01-13T00:54:43.000Z,99863
2019-01-13T00:56:43.000Z,99859
2019-01-13T00:58:28.000Z,99847
2019-01-13T00:59:43.000Z,99847
2019-01-13T01:00:43.000Z,99847
2019-01-13T01:02:43.000Z,99841
2019-01-13T01:04:43.000Z,99837
2019-01-13T01:05:43.000Z,99843
2019-01-13T01:07:43.000Z,99842
2019-01-13T01:09:43.000Z,99836
2019-01-13T01:10:43.000Z,99837
2019-01-13T01:12:43.000Z,99833
2019-01-13T01:14:43.000Z,99829
2019-01-13T01:15:43.000Z,99827
2019-01-13T01:17:43.000Z,99828
2019-01-13T01:18:43.000Z,99829
2019-01-13T01:20:43.000Z,99822
2019-01-13T01:21:43.000Z,99830
2019-01-13T01:23:43.000Z,99830
2019-01-13T01:24:43.000Z,99828
2019-01-13T01:26:43.000Z,99826
2019-01-13T01:27:43.000Z,99823
2019-01-13T01:28:43.000Z,99829
2019-01-13T01:30:28.000Z,99827
2019-01-13T01:32:43.000Z,99830
2019-01-13T01:34:43.000Z,99825
2019-01-13T01:36:43.000Z,99826
2019-01-13T01:38:43.000Z,99823
2019-01-13T01:40:43.000Z,99823
2019-01-13T01:41:43.000Z,99832
2019-01-13T01:42:43.000Z,99829
2019-01-13T01:44:43.000Z,99829
2019-01-13T01:45:43.000Z,99828
2019-01-13T01:46:43.000Z,99815
2019-01-13T01:48:43.000Z,99821
2019-01-13T01:50:43.000Z,99816
2019-01-13T01:52:43.000Z,99820
2019-01-13T01:53:43.000Z,99819
2019-01-13T01:55:43.000Z,99822
2019-01-13T01:56:43.000Z,99822
2019-01-13T01:58:28.000Z,99811
2019-01-13T01:59:43.000Z,99803
2019-01-13T02:01:28.000Z,99804
2019-01-13T02:02:43.000Z,99806
2019-01-13T02:04:43.000Z,99814
2019-01-13T02:06:28.000Z,99806
2019-01-13T02:07:43.000Z,99805
2019-01-13T02:09:43.000Z,99803
2019-01-13T02:10:43.000Z,99777
2019-01-13T02:12:43.000Z,99781
2019-01-13T02:14:43.000Z,99775
2019-01-13T02:15:43.000Z,99765
2019-01-13T02:17:43.000Z,99766
2019-01-13T02:18:43.000Z,99767
2019-01-13T02:20:43.000Z,99760
2019-01-13T02:22:43.000Z,99758
2019-01-13T02:24:43.000Z,99758
2019-01-13T02:26:43.000Z,99760
2019-01-13T02:27:43.000Z,99759
2019-01-13T02:29:43.000Z,99761
2019-01-13T02:30:43.000Z,99758
2019-01-13T02:32:43.000Z,99748
2019-01-13T02:34:43.000Z,99745
2019-01-13T02:36:27.000Z,99734
2019-01-13T02:37:43.000Z,99739
2019-01-13T02:39:43.000Z,99746
2019-01-13T02:40:43.000Z,99744
2019-01-13T02:41:43.000Z,99745
2019-01-13T02:43:43.000Z,99753
2019-01-13T02:45:28.000Z,99764
2019-01-13T02:47:43.000Z,99761
2019-01-13T02:49:43.000Z,99754
2019-01-13T02:51:43.000Z,99750
2019-01-13T02:52:43.000Z,99748
2019-01-13T02:54:27.000Z,99747
2019-01-13T02:55:43.000Z,99744
2019-01-13T02:56:43.000Z,99747
2019-01-13T02:58:43.000Z,99756
2019-01-13T03:00:43.000Z,99760
2019-01-13T03:01:43.000Z,99760
2019-01-13T03:02:43.000Z,99760
2019-01-13T03:04:43.000Z,99768
2019-01-13T03:06:43.000Z,99769
2019-01-13T03:07:43.000Z,99770
2019-01-13T03:09:43.000Z,99764
2019-01-13T03:11:43.000Z,99765
2019-01-13T03:13:43.000Z,99769
2019-01-13T03:14:43.000Z,99772
2019-01-13T03:16:43.000Z,99773
2019-01-13T03:17:43.000Z,99774
2019-01-13T03:18:43.000Z,99767
2019-01-13T03:20:43.000Z,99763
2019-01-13T03:22:43.000Z,99758
2019-01-13T03:24:27.000Z,99749
2019-01-13T03:25:43.000Z,99744
2019-01-13T03:27:43.000Z,99747
2019-01-13T03:29:43.000Z,99742
2019-01-13T03:30:43.000Z,99741
2019-01-13T03:32:43.000Z,99739
2019-01-13T03:34:43.000Z,99741
2019-01-13T03:36:43.000Z,99731
2019-01-13T03:37:43.000Z,99729
2019-01-13T03:39:43.000Z,99712
2019-01-13T03:40:43.000Z,99713
2019-01-13T03:41:43.000Z,99709
2019-01-13T03:43:43.000Z,99709
2019-01-13T03:45:43.000Z,99704
2019-01-13T03:47:43.000Z,99694
2019-01-13T03:49:28.000Z,99694
2019-01-13T03:50:43.000Z,99696
2019-01-13T03:51:43.000Z,99686
2019-01-13T03:53:43.000Z,99680
2019-01-13T03:55:43.000Z,99680
2019-01-13T03:57:43.000Z,99679
2019-01-13T03:59:43.000Z,99666
2019-01-13T04:01:13.000Z,99672
2019-01-13T04:02:42.000Z,99662
2019-01-13T04:03:43.000Z,99660
2019-01-13T04:05:43.000Z,99656
2019-01-13T04:06:43.000Z,99654
2019-01-13T04:08:43.000Z,99649
2019-01-13T04:10:43.000Z,99653
2019-01-13T04:11:43.000Z,99660
2019-01-13T04:13:43.000Z,99653
2019-01-13T04:15:43.000Z,99649
2019-01-13T04:17:27.000Z,99650
2019-01-13T04:18:43.000Z,99643
2019-01-13T04:20:27.000Z,99641
2019-01-13T04:21:43.000Z,99640
2019-01-13T04:22:43.000Z,99652
2019-01-13T04:24:43.000Z,99650
2019-01-13T04:25:43.000Z,99651
2019-01-13T04:27:43.000Z,99651
2019-01-13T04:28:43.000Z,99646
2019-01-13T04:30:43.000Z,99636
2019-01-13T04:31:43.000Z,99626
2019-01-13T04:33:27.000Z,99619
2019-01-13T04:34:43.000Z,99616
2019-01-13T04:35:43.000Z,99607
2019-01-13T04:37:43.000Z,99603
2019-01-13T04:39:43.000Z,99593
2019-01-13T04:41:43.000Z,99586
2019-01-13T04:42:43.000Z,99585
2019-01-13T04:44:43.000Z,99579
2019-01-13T04:46:28.000Z,99570
2019-01-13T04:47:43.000Z,99577
2019-01-13T04:49:43.000Z,99567
2019-01-13T04:50:43.000Z,99564
2019-01-13T04:52:43.000Z,99564
2019-01-13T04:54:28.000Z,99561
2019-01-13T04:55:43.000Z,99558
2019-01-13T04:56:43.000Z,99559
2019-01-13T04:57:43.000Z,99556
2019-01-13T04:58:43.000Z,99553
2019-01-13T05:00:28.000Z,99549
2019-01-13T05:01:28.000Z,99540
2019-01-13T05:03:43.000Z,99536
2019-01-13T05:05:43.000Z,99534
2019-01-13T05:06:43.000Z,99536
2019-01-13T05:08:28.000Z,99531
2019-01-13T05:09:43.000Z,99530
2019-01-13T05:11:43.000Z,99531
2019-01-13T05:13:43.000Z,99532
2019-01-13T05:14:43.000Z,99526
2019-01-13T05:15:43.000Z,99529
2019-01-13T05:17:43.000Z,99518
2019-01-13T05:19:43.000Z,99514
2019-01-13T05:20:43.000Z,99518
2019-01-13T05:21:43.000Z,99518
2019-01-13T05:23:28.000Z,99516
2019-01-13T05:24:43.000Z,99519
2019-01-13T05:26:28.000Z,99512
2019-01-13T05:27:43.000Z,99509
2019-01-13T05:28:43.000Z,99506
2019-01-13T05:30:43.000Z,99493
2019-01-13T05:32:28.000Z,99490
2019-01-13T05:33:43.000Z,99491
2019-01-13T05:35:28.000Z,99478
2019-01-13T05:36:43.000Z,99479
2019-01-13T05:38:43.000Z,99477
2019-01-13T05:40:43.000Z,99486
2019-01-13T05:41:43.000Z,99486
2019-01-13T05:43:43.000Z,99482
2019-01-13T05:45:27.000Z,99485
2019-01-13T05:46:43.000Z,99477
2019-01-13T05:48:43.000Z,99481
2019-01-13T05:50:27.000Z,99475
2019-01-13T05:51:43.000Z,99475
2019-01-13T05:53:27.000Z,99476
2019-01-13T05:54:43.000Z,99474
2019-01-13T05:55:43.000Z,99485
2019-01-13T05:57:27.000Z,99479
2019-01-13T05:58:43.000Z,99475
2019-01-13T06:00:43.000Z,99476
2019-01-13T06:01:43.000Z,99475
2019-01-13T06:03:43.000Z,99478
2019-01-13T06:04:47.000Z,99476
2019-01-13T06:06:47.000Z,99483
2019-01-13T06:08:47.000Z,99477
2019-01-13T06:10:47.000Z,99479
2019-01-13T06:12:47.000Z,99473
2019-01-13T06:13:47.000Z,99471
2019-01-13T06:15:47.000Z,99472
2019-01-13T06:16:47.000Z,99474
2019-01-13T06:17:47.000Z,99470
2019-01-13T06:18:47.000Z,99467
2019-01-13T06:20:47.000Z,99460
2019-01-13T06:22:32.000Z,99465
2019-01-13T06:23:47.000Z,99468
2019-01-13T06:24:47.000Z,99460
2019-01-13T06:25:47.000Z,99458
2019-01-13T06:27:47.000Z,99453
2019-01-13T06:29:47.000Z,99453
2019-01-13T06:31:32.000Z,99449
2019-01-13T06:32:47.000Z,99446
2019-01-13T06:34:02.000Z,99447
2019-01-13T06:36:02.000Z,99440
2019-01-13T06:38:02.000Z,99434
2019-01-13T06:39:47.000Z,99429
2019-01-13T06:41:02.000Z,99426
2019-01-13T06:42:31.000Z,99423
2019-01-13T06:44:01.000Z,99428
2019-01-13T06:45:46.000Z,99421
2019-01-13T06:47:01.000Z,99421
2019-01-13T06:48:46.000Z,99425
2019-01-13T06:50:01.000Z,99420
2019-01-13T06:51:01.000Z,99418
2019-01-13T06:53:01.000Z,99419
2019-01-13T06:55:01.000Z,99414
2019-01-13T06:56:01.000Z,99413
2019-01-13T06:58:01.000Z,99416
2019-01-13T07:00:01.000Z,99410
2019-01-13T07:01:01.000Z,99411
2019-01-13T07:03:01.000Z,99407
2019-01-13T07:04:46.000Z,99408
2019-01-13T07:06:01.000Z,99408
2019-01-13T07:07:01.000Z,99405
2019-01-13T07:09:01.000Z,99402
2019-01-13T07:10:01.000Z,99398
2019-01-13T07:12:01.000Z,99396
2019-01-13T07:14:01.000Z,99395
2019-01-13T07:16:01.000Z,99390
2019-01-13T07:17:01.000Z,99385
2019-01-13T07:19:01.000Z,99384
2019-01-13T07:20:46.000Z,99382
2019-01-13T07:22:01.000Z,99377
2019-01-13T07:23:31.000Z,99380
2019-01-13T07:25:01.000Z,99376
2019-01-13T07:26:01.000Z,99375
2019-01-13T07:28:01.000Z,99369
2019-01-13T07:29:01.000Z,99375
2019-01-13T07:31:01.000Z,99372
2019-01-13T07:33:01.000Z,99366
2019-01-13T07:34:01.000Z,99367
2019-01-13T07:36:01.000Z,99363
2019-01-13T07:37:01.000Z,99359
2019-01-13T07:39:02.000Z,99355
2019-01-13T07:40:02.000Z,99344
2019-01-13T07:42:02.000Z,99350
2019-01-13T07:44:02.000Z,99343
2019-01-13T07:46:02.000Z,99352
2019-01-13T07:47:47.000Z,99348
2019-01-13T07:49:02.000Z,99349
2019-01-13T07:51:02.000Z,99348
2019-01-13T07:53:02.000Z,99347
2019-01-13T07:54:47.000Z,99346
2019-01-13T07:56:02.000Z,99346
2019-01-13T07:57:02.000Z,99343
2019-01-13T07:59:02.000Z,99343
2019-01-13T08:01:02.000Z,99333
2019-01-13T08:02:32.000Z,99333
2019-01-13T08:04:02.000Z,99330
2019-01-13T08:06:02.000Z,99324
2019-01-13T08:07:02.000Z,99331
2019-01-13T08:08:02.000Z,99324
2019-01-13T08:10:02.000Z,99324
2019-01-13T08:12:02.000Z,99313
2019-01-13T08:14:02.000Z,99319
2019-01-13T08:16:02.000Z,99307
2019-01-13T08:18:02.000Z,99307
2019-01-13T08:20:02.000Z,99303
2019-01-13T08:22:02.000Z,99310
2019-01-13T08:24:02.000Z,99318
2019-01-13T08:26:02.000Z,99313
2019-01-13T08:27:32.000Z,99309
2019-01-13T08:29:02.000Z,99310
2019-01-13T08:31:02.000Z,99313
2019-01-13T08:33:02.000Z,99308
2019-01-13T08:34:02.000Z,99308
2019-01-13T08:36:02.000Z,99302
2019-01-13T08:37:32.000Z,99303
2019-01-13T08:39:02.000Z,99306
2019-01-13T08:41:02.000Z,99293
2019-01-13T08:43:02.000Z,99293
2019-01-13T08:45:02.000Z,99286
2019-01-13T08:46:47.000Z,99285
2019-01-13T08:48:02.000Z,99284
2019-01-13T08:50:02.000Z,99291
2019-01-13T08:52:02.000Z,99298
2019-01-13T08:54:02.000Z,99285
2019-01-13T08:56:02.000Z,99283
2019-01-13T08:58:02.000Z,99292
2019-01-13T09:00:02.000Z,99287
2019-01-13T09:02:02.000Z,99277
2019-01-13T09:03:31.000Z,99277
2019-01-13T09:05:02.000Z,99270
2019-01-13T09:06:02.000Z,99260
2019-01-13T09:07:47.000Z,99267
2019-01-13T09:08:47.000Z,99253
2019-01-13T09:10:02.000Z,99257
2019-01-13T09:12:02.000Z,99256
2019-01-13T09:13:02.000Z,99260
2019-01-13T09:14:02.000Z,99257
2019-01-13T09:15:02.000Z,99262
2019-01-13T09:17:02.000Z,99256
2019-01-13T09:18:02.000Z,99258
2019-01-13T09:20:02.000Z,99258
2019-01-13T09:21:02.000Z,99259
2019-01-13T09:22:02.000Z,99249
2019-01-13T09:24:02.000Z,99251
2019-01-13T09:26:02.000Z,99242
2019-01-13T09:27:47.000Z,99246
2019-01-13T09:29:02.000Z,99248
2019-01-13T09:31:02.000Z,99253
2019-01-13T09:32:32.000Z,99245
2019-01-13T09:34:02.000Z,99250
2019-01-13T09:35:02.000Z,99248
2019-01-13T09:37:02.000Z,99246
2019-01-13T09:39:02.000Z,99240
2019-01-13T09:41:02.000Z,99237
2019-01-13T09:42:47.000Z,99228
2019-01-13T09:44:02.000Z,99222
2019-01-13T09:46:02.000Z,99223
2019-01-13T09:47:02.000Z,99216
2019-01-13T09:48:02.000Z,99216
2019-01-13T09:49:47.000Z,99217
2019-01-13T09:52:02.000Z,99212
2019-01-13T09:53:47.000Z,99217
2019-01-13T09:55:02.000Z,99212
2019-01-13T09:57:02.000Z,99208
2019-01-13T09:59:02.000Z,99204
2019-01-13T10:00:02.000Z,99197
2019-01-13T10:02:02.000Z,99188
2019-01-13T10:03:02.000Z,99191
2019-01-13T10:05:02.000Z,99199
2019-01-13T10:07:02.000Z,99198
2019-01-13T10:08:02.000Z,99212
2019-01-13T10:09:02.000Z,99208
2019-01-13T10:11:02.000Z,99205
2019-01-13T10:12:02.000Z,99206
2019-01-13T10:14:02.000Z,99208
2019-01-13T10:15:02.000Z,99208
2019-01-13T10:17:02.000Z,99202
2019-01-13T10:18:02.000Z,99206
2019-01-13T10:19:02.000Z,99206
2019-01-13T10:20:02.000Z,99200
2019-01-13T10:22:02.000Z,99197
2019-01-13T10:24:02.000Z,99205
2019-01-13T10:26:02.000Z,99179
2019-01-13T10:27:02.000Z,99188
2019-01-13T10:28:02.000Z,99181
2019-01-13T10:29:47.000Z,99187
2019-01-13T10:31:02.000Z,99190
2019-01-13T10:32:47.000Z,99182
2019-01-13T10:34:47.000Z,99170
2019-01-13T10:36:02.000Z,99165
2019-01-13T10:38:02.000Z,99162
2019-01-13T10:40:02.000Z,99167
2019-01-13T10:41:02.000Z,99170
2019-01-13T10:43:02.000Z,99164
2019-01-13T10:45:02.000Z,99170
2019-01-13T10:47:02.000Z,99159
2019-01-13T10:49:02.000Z,99158
2019-01-13T10:50:02.000Z,99156
2019-01-13T10:51:47.000Z,99139
2019-01-13T10:53:02.000Z,99144
2019-01-13T10:55:02.000Z,99139
2019-01-13T10:56:02.000Z,99136
2019-01-13T10:57:02.000Z,99135
2019-01-13T10:59:02.000Z,99132
2019-01-13T11:00:47.000Z,99124
2019-01-13T11:02:02.000Z,99124
2019-01-13T11:04:02.000Z,99124
2019-01-13T11:05:47.000Z,99112
2019-01-13T11:07:02.000Z,99115
2019-01-13T11:08:02.000Z,99108
2019-01-13T11:10:02.000Z,99102
2019-01-13T11:11:02.000Z,99103
2019-01-13T11:13:02.000Z,99101
2019-01-13T11:15:02.000Z,99096
2019-01-13T11:17:02.000Z,99094
2019-01-13T11:19:02.000Z,99099
2019-01-13T11:21:02.000Z,99089
2019-01-13T11:22:47.000Z,99086
2019-01-13T11:24:02.000Z,99091
2019-01-13T11:26:02.000Z,99088
2019-01-13T11:28:02.000Z,99075
2019-01-13T11:29:47.000Z,99079
2019-01-13T11:31:02.000Z,99085
2019-01-13T11:33:02.000Z,99081
2019-01-13T11:35:02.000Z,99080
2019-01-13T11:37:02.000Z,99066
2019-01-13T11:38:32.000Z,99068
2019-01-13T11:40:02.000Z,99063
2019-01-13T11:42:02.000Z,99067
2019-01-13T11:43:02.000Z,99061
2019-01-13T11:45:02.000Z,99056
2019-01-13T11:46:02.000Z,99055
2019-01-13T11:47:02.000Z,99057
2019-01-13T11:49:02.000Z,99050
2019-01-13T11:50:02.000Z,99048
2019-01-13T11:52:02.000Z,99042
2019-01-13T11:53:03.000Z,99045
2019-01-13T11:55:03.000Z,99037
2019-01-13T11:56:03.000Z,99029
2019-01-13T11:57:47.000Z,99024
2019-01-13T11:59:03.000Z,99020
2019-01-13T12:00:47.000Z,99014
2019-01-13T12:01:48.000Z,99016
2019-01-13T12:04:03.000Z,99009
2019-01-13T12:06:03.000Z,99010
2019-01-13T12:08:03.000Z,99006
2019-01-13T12:09:47.000Z,99005
2019-01-13T12:10:47.000Z,99004
2019-01-13T12:12:03.000Z,99003
2019-01-13T12:13:32.000Z,99002
2019-01-13T12:15:03.000Z,99005
2019-01-13T12:17:03.000Z,98999
2019-01-13T12:18:03.000Z,98998
2019-01-13T12:20:03.000Z,98995
2019-01-13T12:21:03.000Z,98999
2019-01-13T12:23:03.000Z,98995
2019-01-13T12:25:03.000Z,98992
2019-01-13T12:26:32.000Z,98988
2019-01-13T12:28:03.000Z,98984
2019-01-13T12:29:47.000Z,98980
2019-01-13T12:30:48.000Z,98974
2019-01-13T12:32:03.000Z,98975
2019-01-13T12:33:03.000Z,98975
2019-01-13T12:35:03.000Z,98976
2019-01-13T12:37:03.000Z,98978
2019-01-13T12:38:03.000Z,98978
2019-01-13T12:40:03.000Z,98972
2019-01-13T12:41:03.000Z,98977
2019-01-13T12:43:03.000Z,98973
2019-01-13T12:44:03.000Z,98963
2019-01-13T12:46:03.000Z,98971
2019-01-13T12:47:03.000Z,98965
2019-01-13T12:49:03.000Z,98966
2019-01-13T12:50:48.000Z,98961
2019-01-13T12:52:32.000Z,98961
2019-01-13T12:54:03.000Z,98953
2019-01-13T12:55:03.000Z,98955
2019-01-13T12:57:03.000Z,98953
2019-01-13T12:59:03.000Z,98957
2019-01-13T13:01:03.000Z,98944
2019-01-13T13:03:03.000Z,98942
2019-01-13T13:05:03.000Z,98942
2019-01-13T13:07:03.000Z,98942
2019-01-13T13:09:03.000Z,98930
2019-01-13T13:11:03.000Z,98924
2019-01-13T13:13:03.000Z,98913
2019-01-13T13:14:03.000Z,98902
2019-01-13T13:16:03.000Z,98910
2019-01-13T13:18:03.000Z,98910
2019-01-13T13:19:03.000Z,98904
2019-01-13T13:21:02.000Z,98896
2019-01-13T13:22:03.000Z,98894
2019-01-13T13:24:03.000Z,98897
2019-01-13T13:26:03.000Z,98903
2019-01-13T13:27:03.000Z,98903
2019-01-13T13:29:03.000Z,98888
2019-01-13T13:30:47.000Z,98883
2019-01-13T13:32:03.000Z,98878
2019-01-13T13:33:32.000Z,98886
2019-01-13T13:35:02.000Z,98883
2019-01-13T13:37:02.000Z,98897
2019-01-13T13:38:03.000Z,98893
2019-01-13T13:39:03.000Z,98882
2019-01-13T13:41:03.000Z,98859
2019-01-13T13:42:03.000Z,98870
2019-01-13T13:44:03.000Z,98857
2019-01-13T13:45:03.000Z,98859
2019-01-13T13:47:03.000Z,98868
2019-01-13T13:48:47.000Z,98864
2019-01-13T13:50:03.000Z,98857
2019-01-13T13:52:03.000Z,98839
2019-01-13T13:54:03.000Z,98840
2019-01-13T13:56:03.000Z,98838
2019-01-13T13:57:03.000Z,98829
2019-01-13T13:59:03.000Z,98820
2019-01-13T14:01:02.000Z,98822
2019-01-13T14:03:02.000Z,98820
2019-01-13T14:05:02.000Z,98827
2019-01-13T14:06:02.000Z,98818
2019-01-13T14:08:02.000Z,98820
2019-01-13T14:10:02.000Z,98834
2019-01-13T14:11:47.000Z,98835
2019-01-13T14:13:02.000Z,98838
2019-01-13T14:14:02.000Z,98841
2019-01-13T14:16:02.000Z,98839
2019-01-13T14:18:02.000Z,98833
2019-01-13T14:19:02.000Z,98834
2019-01-13T14:21:02.000Z,98831
2019-01-13T14:22:02.000Z,98825
2019-01-13T14:24:02.000Z,98825
2019-01-13T14:26:02.000Z,98814
2019-01-13T14:27:02.000Z,98824
2019-01-13T14:29:02.000Z,98830
2019-01-13T14:31:02.000Z,98820
2019-01-13T14:33:02.000Z,98824
2019-01-13T14:35:02.000Z,98822
2019-01-13T14:37:02.000Z,98827
2019-01-13T14:39:02.000Z,98824
2019-01-13T14:40:47.000Z,98823
2019-01-13T14:42:02.000Z,98825
2019-01-13T14:43:02.000Z,98831
2019-01-13T14:45:02.000Z,98839
2019-01-13T14:47:02.000Z,98830
2019-01-13T14:49:02.000Z,98829
2019-01-13T14:51:02.000Z,98833
2019-01-13T14:52:02.000Z,98819
2019-01-13T14:54:02.000Z,98822
2019-01-13T14:56:02.000Z,98821
2019-01-13T14:57:02.000Z,98812
2019-01-13T14:59:02.000Z,98812
2019-01-13T15:01:02.000Z,98806
2019-01-13T15:03:02.000Z,98810
2019-01-13T15:04:47.000Z,98805
2019-01-13T15:07:02.000Z,98809
2019-01-13T15:08:02.000Z,98809
2019-01-13T15:09:02.000Z,98807
2019-01-13T15:11:02.000Z,98803
2019-01-13T15:12:02.000Z,98813
2019-01-13T15:13:47.000Z,98805
2019-01-13T15:15:02.000Z,98803
2019-01-13T15:16:02.000Z,98810
2019-01-13T15:18:02.000Z,98807
2019-01-13T15:19:02.000Z,98810
2019-01-13T15:21:02.000Z,98817
2019-01-13T15:22:32.000Z,98807
2019-01-13T15:24:02.000Z,98817
2019-01-13T15:25:02.000Z,98816
2019-01-13T15:27:02.000Z,98829
2019-01-13T15:28:32.000Z,98826
2019-01-13T15:30:02.000Z,98830
2019-01-13T15:32:02.000Z,98827
2019-01-13T15:34:02.000Z,98822
2019-01-13T15:36:02.000Z,98827
2019-01-13T15:37:02.000Z,98823
2019-01-13T15:39:02.000Z,98814
2019-01-13T15:41:02.000Z,98825
2019-01-13T15:42:02.000Z,98820
2019-01-13T15:44:02.000Z,98817
2019-01-13T15:45:02.000Z,98822
2019-01-13T15:47:02.000Z,98818
2019-01-13T15:48:47.000Z,98822
2019-01-13T15:50:02.000Z,98814
2019-01-13T15:51:02.000Z,98814
2019-01-13T15:53:02.000Z,98806
2019-01-13T15:55:02.000Z,98811
2019-01-13T15:57:02.000Z,98809
2019-01-13T15:59:02.000Z,98808
2019-01-13T16:01:02.000Z,98813
2019-01-13T16:03:02.000Z,98808
2019-01-13T16:05:02.000Z,98800
2019-01-13T16:07:02.000Z,98812
2019-01-13T16:09:02.000Z,98805
2019-01-13T16:10:02.000Z,98797
2019-01-13T16:12:02.000Z,98807
2019-01-13T16:13:02.000Z,98802
2019-01-13T16:15:02.000Z,98802
2019-01-13T16:17:02.000Z,98799
2019-01-13T16:18:02.000Z,98804
2019-01-13T16:19:47.000Z,98801
2019-01-13T16:21:02.000Z,98797
2019-01-13T16:23:02.000Z,98791
2019-01-13T16:25:02.000Z,98789
2019-01-13T16:27:02.000Z,98783
2019-01-13T16:28:02.000Z,98780
2019-01-13T16:30:02.000Z,98792
2019-01-13T16:32:02.000Z,98786
2019-01-13T16:33:02.000Z,98778
2019-01-13T16:35:02.000Z,98778
2019-01-13T16:37:02.000Z,98773
2019-01-13T16:38:02.000Z,98776
2019-01-13T16:40:02.000Z,98782
2019-01-13T16:41:02.000Z,98783
2019-01-13T16:42:47.000Z,98778
2019-01-13T16:44:02.000Z,98778
2019-01-13T16:45:02.000Z,98775
2019-01-13T16:46:02.000Z,98765
2019-01-13T16:48:02.000Z,98767
2019-01-13T16:49:02.000Z,98771
2019-01-13T16:51:02.000Z,98766
2019-01-13T16:53:02.000Z,98760
2019-01-13T16:55:02.000Z,98765
2019-01-13T16:57:02.000Z,98758
2019-01-13T16:59:02.000Z,98761
2019-01-13T17:00:47.000Z,98743
2019-01-13T17:02:32.000Z,98753
2019-01-13T17:04:02.000Z,98750
2019-01-13T17:05:02.000Z,98749
2019-01-13T17:07:02.000Z,98744
2019-01-13T17:08:32.000Z,98748
2019-01-13T17:10:02.000Z,98742
2019-01-13T17:12:02.000Z,98747
2019-01-13T17:14:02.000Z,98747
2019-01-13T17:16:02.000Z,98735
2019-01-13T17:18:02.000Z,98743
2019-01-13T17:20:02.000Z,98735
2019-01-13T17:22:02.000Z,98728
2019-01-13T17:24:02.000Z,98730
2019-01-13T17:25:02.000Z,98737
2019-01-13T17:27:02.000Z,98719
2019-01-13T17:28:02.000Z,98716
2019-01-13T17:30:02.000Z,98712
2019-01-13T17:31:02.000Z,98703
2019-01-13T17:33:02.000Z,98704
2019-01-13T17:34:32.000Z,98703
2019-01-13T17:36:02.000Z,98687
2019-01-13T17:37:02.000Z,98689
2019-01-13T17:38:02.000Z,98697
2019-01-13T17:40:02.000Z,98696
2019-01-13T17:42:02.000Z,98682
2019-01-13T17:43:02.000Z,98693
2019-01-13T17:45:02.000Z,98693
2019-01-13T17:46:02.000Z,98691
2019-01-13T17:47:02.000Z,98666
2019-01-13T17:49:02.000Z,98733
2019-01-13T17:50:02.000Z,98727
2019-01-13T17:52:02.000Z,98752
2019-01-13T17:53:02.000Z,98767
2019-01-13T17:55:02.000Z,98755
2019-01-13T17:57:02.000Z,98765
2019-01-13T17:58:02.000Z,98768
2019-01-13T18:00:02.000Z,98750
2019-01-13T18:02:02.000Z,98752
2019-01-13T18:03:02.000Z,98751
2019-01-13T18:05:02.000Z,98755
2019-01-13T18:06:02.000Z,98750
2019-01-13T18:07:47.000Z,98756
2019-01-13T18:09:02.000Z,98761
2019-01-13T18:10:02.000Z,98770
2019-01-13T18:12:02.000Z,98760
2019-01-13T18:13:02.000Z,98771
2019-01-13T18:15:02.000Z,98756
2019-01-13T18:17:03.000Z,98776
2019-01-13T18:19:03.000Z,98772
2019-01-13T18:20:03.000Z,98777
2019-01-13T18:22:03.000Z,98779
2019-01-13T18:23:03.000Z,98783
2019-01-13T18:25:03.000Z,98777
2019-01-13T18:26:03.000Z,98783
2019-01-13T18:28:03.000Z,98789
2019-01-13T18:30:03.000Z,98795
2019-01-13T18:31:32.000Z,98789
2019-01-13T18:33:03.000Z,98783
2019-01-13T18:34:48.000Z,98780
2019-01-13T18:36:03.000Z,98798
2019-01-13T18:37:03.000Z,98788
2019-01-13T18:38:03.000Z,98795
2019-01-13T18:40:03.000Z,98792
2019-01-13T18:41:03.000Z,98785
2019-01-13T18:42:03.000Z,98787
2019-01-13T18:43:47.000Z,98783
2019-01-13T18:45:03.000Z,98790
2019-01-13T18:46:03.000Z,98791
2019-01-13T18:48:03.000Z,98793
2019-01-13T18:49:03.000Z,98790
2019-01-13T18:51:03.000Z,98804
2019-01-13T18:52:47.000Z,98800
2019-01-13T18:54:03.000Z,98805
2019-01-13T18:55:03.000Z,98802
2019-01-13T18:56:48.000Z,98806
2019-01-13T18:58:03.000Z,98810
2019-01-13T18:59:03.000Z,98811
2019-01-13T19:00:47.000Z,98814
2019-01-13T19:02:03.000Z,98810
2019-01-13T19:03:03.000Z,98808
2019-01-13T19:05:03.000Z,98811
2019-01-13T19:07:03.000Z,98807
2019-01-13T19:08:47.000Z,98815
2019-01-13T19:10:03.000Z,98815
2019-01-13T19:11:03.000Z,98816
2019-01-13T19:12:32.000Z,98819
2019-01-13T19:14:03.000Z,98815
2019-01-13T19:15:03.000Z,98819
2019-01-13T19:17:03.000Z,98814
2019-01-13T19:19:03.000Z,98819
2019-01-13T19:21:02.000Z,98822
2019-01-13T19:23:02.000Z,98828
2019-01-13T19:24:02.000Z,98825
2019-01-13T19:25:02.000Z,98823
2019-01-13T19:26:02.000Z,98831
2019-01-13T19:28:02.000Z,98829
2019-01-13T19:29:02.000Z,98829
2019-01-13T19:30:47.000Z,98830
2019-01-13T19:32:02.000Z,98835
2019-01-13T19:34:02.000Z,98833
2019-01-13T19:36:02.000Z,98832
2019-01-13T19:38:02.000Z,98839
2019-01-13T19:40:02.000Z,98839
2019-01-13T19:41:47.000Z,98833
2019-01-13T19:43:02.000Z,98835
2019-01-13T19:45:02.000Z,98833
2019-01-13T19:46:02.000Z,98840
2019-01-13T19:47:32.000Z,98831
2019-01-13T19:49:02.000Z,98836
2019-01-13T19:50:02.000Z,98838
2019-01-13T19:52:02.000Z,98843
2019-01-13T19:53:02.000Z,98841
2019-01-13T19:55:02.000Z,98841
2019-01-13T19:56:02.000Z,98847
2019-01-13T19:57:02.000Z,98843
2019-01-13T19:59:02.000Z,98852
2019-01-13T20:01:02.000Z,98848
2019-01-13T20:02:02.000Z,98856
2019-01-13T20:03:02.000Z,98859
2019-01-13T20:05:02.000Z,98859
2019-01-13T20:07:02.000Z,98859
2019-01-13T20:09:02.000Z,98864
2019-01-13T20:10:47.000Z,98859
2019-01-13T20:12:02.000Z,98856
2019-01-13T20:14:02.000Z,98852
2019-01-13T20:15:02.000Z,98847
2019-01-13T20:16:47.000Z,98850
2019-01-13T20:18:02.000Z,98856
2019-01-13T20:20:02.000Z,98849
2019-01-13T20:21:02.000Z,98849
2019-01-13T20:22:02.000Z,98848
2019-01-13T20:23:47.000Z,98852
2019-01-13T20:25:02.000Z,98863
2019-01-13T20:27:02.000Z,98862
2019-01-13T20:29:02.000Z,98867
2019-01-13T20:31:02.000Z,98866
2019-01-13T20:33:02.000Z,98876
2019-01-13T20:35:02.000Z,98876
2019-01-13T20:36:02.000Z,98876